Time;durP1;ratioP1;P1;durP2;ratioP2;P2;SDS_P1;SDS_P2;PMS_P1;PMS_P2;Temp;Humidity;BMP_temperature;BMP_pressure;BME280_temperature;BME280_humidity;BME280_pressure;Samples;Min_cycle;Max_cycle;Signal;HPM_P1;HPM_P2
2023/07/31 00:00:19;;;;;;;13.77;3.83;;;16.70;99.90;;;;;;5059861;28;20459;-80
2023/07/31 00:02:46;;;;;;;13.70;3.22;;;16.60;99.90;;;;;;5061886;28;20110;-80
2023/07/31 00:05:13;;;;;;;11.88;3.75;;;16.60;99.90;;;;;;5055736;28;20041;-80
2023/07/31 00:07:39;;;;;;;18.05;3.08;;;16.50;99.90;;;;;;5057221;28;20452;-80
2023/07/31 00:10:06;;;;;;;12.50;2.60;;;16.50;99.90;;;;;;5057157;28;20048;-81
2023/07/31 00:12:33;;;;;;;9.70;2.78;;;16.50;99.90;;;;;;5080404;28;20040;-81
2023/07/31 00:15:00;;;;;;;7.38;2.40;;;16.50;99.90;;;;;;5074737;28;20379;-80
2023/07/31 00:17:27;;;;;;;8.25;2.60;;;16.40;99.90;;;;;;5056709;28;20048;-82
2023/07/31 00:19:54;;;;;;;11.85;2.80;;;16.30;99.90;;;;;;5055940;28;20514;-81
2023/07/31 00:22:20;;;;;;;9.88;2.40;;;16.40;99.90;;;;;;5056789;28;20039;-81
2023/07/31 00:24:47;;;;;;;10.55;2.33;;;16.30;99.90;;;;;;5074690;28;20352;-81
2023/07/31 00:27:15;;;;;;;8.02;2.13;;;16.30;99.90;;;;;;5056144;28;20052;-81
2023/07/31 00:29:43;;;;;;;8.20;1.83;;;16.30;99.90;;;;;;5056684;28;20367;-81
2023/07/31 00:32:09;;;;;;;8.88;2.22;;;16.40;99.90;;;;;;5056216;28;20063;-81
2023/07/31 00:34:36;;;;;;;10.52;1.75;;;16.40;99.90;;;;;;5074369;28;20470;-80
2023/07/31 00:37:04;;;;;;;8.15;1.77;;;16.40;99.90;;;;;;5056606;28;20045;-81
2023/07/31 00:39:31;;;;;;;8.45;1.88;;;16.40;99.90;;;;;;5055799;28;20041;-81
2023/07/31 00:41:59;;;;;;;6.68;1.95;;;16.40;99.90;;;;;;5060006;28;20047;-80
2023/07/31 00:44:25;;;;;;;10.50;2.20;;;16.40;99.90;;;;;;5060245;28;20067;-80
2023/07/31 00:49:38;;;;;;;6.40;1.88;;;16.40;99.90;;;;;;5060387;28;20113;-82
2023/07/31 00:52:05;;;;;;;5.40;1.70;;;16.50;99.90;;;;;;5076817;28;20041;-80
2023/07/31 00:54:31;;;;;;;4.45;1.40;;;16.50;99.90;;;;;;5078173;28;20414;-81
2023/07/31 00:59:46;;;;;;;4.15;1.30;;;16.50;99.90;;;;;;5076922;28;20048;-81
2023/07/31 01:02:14;;;;;;;3.97;1.23;;;16.50;99.90;;;;;;5077878;28;20032;-80
2023/07/31 01:04:40;;;;;;;7.47;1.40;;;16.50;99.90;;;;;;5079403;28;20086;-81
2023/07/31 01:09:39;;;;;;;2.95;1.10;;;16.60;99.90;;;;;;5077668;28;20044;-81
2023/07/31 01:12:06;;;;;;;4.75;1.13;;;16.60;99.90;;;;;;5059008;28;20052;-81
2023/07/31 01:14:33;;;;;;;4.07;1.30;;;16.60;99.90;;;;;;5059934;28;20044;-81
2023/07/31 01:16:59;;;;;;;3.58;1.20;;;16.60;99.90;;;;;;5059928;28;20059;-80
2023/07/31 01:19:30;;;;;;;7.80;1.17;;;16.60;99.90;;;;;;5059322;28;20040;-81
2023/07/31 01:21:57;;;;;;;4.20;1.17;;;16.70;99.90;;;;;;5059910;28;20489;-80
2023/07/31 01:24:24;;;;;;;3.80;1.05;;;16.70;99.90;;;;;;5077686;28;20037;-81
2023/07/31 01:26:52;;;;;;;3.25;1.20;;;16.70;99.90;;;;;;5076582;28;20040;-80
2023/07/31 01:29:19;;;;;;;3.42;1.02;;;16.70;99.90;;;;;;5060498;28;20048;-81
2023/07/31 01:31:45;;;;;;;3.55;1.15;;;16.70;99.90;;;;;;5060081;28;20056;-80
2023/07/31 01:34:12;;;;;;;2.33;0.93;;;16.70;99.90;;;;;;5076331;28;20052;-81
2023/07/31 01:36:41;;;;;;;3.45;1.30;;;16.70;99.90;;;;;;5077454;28;20119;-81
2023/07/31 01:39:08;;;;;;;4.88;1.10;;;16.70;99.90;;;;;;5076364;28;20037;-81
2023/07/31 01:41:35;;;;;;;4.63;1.25;;;16.80;99.90;;;;;;5059005;28;20045;-81
2023/07/31 01:44:01;;;;;;;4.68;1.30;;;16.80;99.90;;;;;;5059279;28;20037;-81
2023/07/31 01:46:29;;;;;;;3.72;1.25;;;16.80;99.90;;;;;;5057073;28;20040;-81
2023/07/31 01:48:55;;;;;;;7.13;1.23;;;16.80;99.90;;;;;;5059298;28;20044;-81
2023/07/31 01:51:23;;;;;;;6.13;1.50;;;16.80;99.90;;;;;;5059091;28;20049;-81
2023/07/31 01:53:50;;;;;;;3.75;1.10;;;16.80;99.90;;;;;;5058487;28;20367;-80
2023/07/31 01:56:19;;;;;;;4.20;1.15;;;16.80;99.90;;;;;;5057472;28;20052;-81
2023/07/31 01:58:45;;;;;;;4.20;1.20;;;16.80;99.90;;;;;;5078566;28;20039;-80
2023/07/31 02:01:12;;;;;;;3.95;1.10;;;16.80;99.90;;;;;;5079434;28;20044;-81
2023/07/31 02:03:39;;;;;;;3.55;1.30;;;16.80;99.90;;;;;;5079094;28;20378;-80
2023/07/31 02:06:07;;;;;;;5.50;1.25;;;16.80;99.90;;;;;;5095840;28;20043;-81
2023/07/31 02:08:34;;;;;;;3.70;1.20;;;16.90;99.90;;;;;;5079639;28;20040;-81
2023/07/31 02:11:00;;;;;;;3.42;1.20;;;16.90;99.90;;;;;;5078900;28;20040;-80
2023/07/31 02:13:27;;;;;;;3.92;1.20;;;16.90;99.90;;;;;;5062064;28;20055;-81
2023/07/31 02:15:55;;;;;;;6.05;1.50;;;17.00;99.90;;;;;;5079104;28;20339;-80
2023/07/31 02:18:22;;;;;;;4.53;1.23;;;17.00;99.90;;;;;;5078663;28;20043;-81
2023/07/31 02:20:49;;;;;;;4.15;1.40;;;17.00;99.90;;;;;;5061298;28;20047;-80
2023/07/31 02:23:15;;;;;;;3.92;1.33;;;17.00;99.90;;;;;;5097254;28;20401;-80
2023/07/31 02:25:43;;;;;;;4.80;1.52;;;17.00;99.90;;;;;;5077624;28;20055;-81
2023/07/31 02:28:09;;;;;;;5.68;1.52;;;17.10;99.90;;;;;;5078929;28;20047;-81
2023/07/31 02:30:36;;;;;;;6.00;1.50;;;17.00;99.90;;;;;;5062406;28;20048;-81
2023/07/31 02:33:03;;;;;;;4.03;1.20;;;17.10;99.90;;;;;;5077555;28;20047;-80
2023/07/31 02:35:30;;;;;;;5.25;1.40;;;17.10;99.90;;;;;;5078350;28;20040;-81
2023/07/31 02:37:57;;;;;;;3.53;1.60;;;17.00;99.90;;;;;;5078675;28;20093;-80
2023/07/31 02:40:23;;;;;;;5.38;1.45;;;17.10;99.90;;;;;;5061346;28;20058;-80
2023/07/31 02:42:50;;;;;;;5.35;1.30;;;17.10;99.90;;;;;;5078310;28;20097;-80
2023/07/31 02:45:17;;;;;;;3.90;1.40;;;17.10;99.90;;;;;;5095110;28;20059;-80
2023/07/31 02:47:44;;;;;;;4.95;1.40;;;17.10;99.90;;;;;;5078008;28;20102;-80
2023/07/31 02:50:10;;;;;;;3.13;1.10;;;17.10;99.90;;;;;;5096417;28;20107;-80
2023/07/31 02:52:37;;;;;;;4.82;1.30;;;17.20;99.90;;;;;;5076992;28;20051;-81
2023/07/31 02:55:04;;;;;;;5.13;1.20;;;17.20;99.90;;;;;;5061996;28;20048;-80
2023/07/31 02:57:31;;;;;;;6.07;1.45;;;17.20;99.90;;;;;;5078043;28;20040;-80
2023/07/31 02:59:57;;;;;;;3.53;1.30;;;17.20;99.90;;;;;;5061157;28;20432;-80
2023/07/31 03:02:24;;;;;;;5.18;1.40;;;17.20;99.90;;;;;;5096014;28;20047;-80
2023/07/31 03:04:51;;;;;;;6.80;1.40;;;17.20;99.90;;;;;;5077922;28;20160;-80
2023/07/31 03:07:19;;;;;;;3.38;1.17;;;17.20;99.90;;;;;;5076835;28;20040;-81
2023/07/31 03:09:46;;;;;;;5.70;1.70;;;17.20;99.90;;;;;;5095796;28;20062;-80
2023/07/31 03:12:14;;;;;;;4.28;1.25;;;17.20;99.90;;;;;;5094814;28;20032;-80
2023/07/31 03:14:41;;;;;;;4.35;1.58;;;17.20;99.90;;;;;;5077870;28;20040;-81
2023/07/31 03:17:08;;;;;;;4.68;1.60;;;17.20;99.90;;;;;;5060818;28;20433;-81
2023/07/31 03:19:35;;;;;;;4.82;1.38;;;17.20;99.90;;;;;;5076766;28;20040;-80
2023/07/31 03:22:01;;;;;;;4.80;1.27;;;17.20;99.90;;;;;;5095375;28;20043;-80
2023/07/31 03:24:28;;;;;;;5.18;1.45;;;17.30;99.90;;;;;;5060946;28;20074;-80
2023/07/31 03:26:57;;;;;;;4.85;1.30;;;17.30;99.90;;;;;;5076522;28;20048;-80
2023/07/31 03:29:25;;;;;;;5.05;1.35;;;17.30;99.90;;;;;;5077722;28;20040;-81
2023/07/31 03:31:52;;;;;;;7.05;1.35;;;17.30;99.90;;;;;;5076570;28;20078;-80
2023/07/31 03:34:18;;;;;;;3.40;1.10;;;17.30;99.90;;;;;;5077564;28;20054;-81
2023/07/31 03:36:46;;;;;;;2.97;1.10;;;17.30;99.90;;;;;;5077010;28;20466;-80
2023/07/31 03:39:13;;;;;;;4.15;1.25;;;17.40;99.90;;;;;;5076929;28;20056;-80
2023/07/31 03:41:40;;;;;;;5.35;1.45;;;17.40;99.90;;;;;;5095032;28;20097;-80
2023/07/31 03:44:06;;;;;;;3.42;1.15;;;17.40;99.90;;;;;;5094807;28;20125;-81
2023/07/31 03:46:35;;;;;;;4.90;1.23;;;17.40;99.90;;;;;;5094038;28;20135;-80
2023/07/31 03:49:03;;;;;;;5.68;1.33;;;17.40;99.90;;;;;;5077208;28;20620;-80
2023/07/31 03:51:30;;;;;;;3.92;1.35;;;17.40;99.90;;;;;;5077044;28;20079;-80
2023/07/31 03:53:57;;;;;;;1.85;0.98;;;17.40;99.90;;;;;;5076572;28;20036;-81
2023/07/31 03:56:24;;;;;;;4.15;1.40;;;17.40;99.90;;;;;;5094968;28;20524;-81
2023/07/31 03:58:50;;;;;;;5.25;1.38;;;17.50;99.90;;;;;;5065352;28;20048;-81
2023/07/31 04:01:19;;;;;;;5.75;1.13;;;17.50;99.90;;;;;;5057114;28;20486;-80
2023/07/31 04:03:46;;;;;;;3.53;1.20;;;17.50;99.90;;;;;;5074782;28;20040;-80
2023/07/31 04:09:00;;;;;;;7.65;1.60;;;17.50;99.90;;;;;;5075452;28;20119;-81
2023/07/31 04:11:27;;;;;;;3.50;1.17;;;17.50;99.90;;;;;;5074592;28;20094;-80
2023/07/31 04:13:54;;;;;;;2.90;1.02;;;17.50;99.90;;;;;;5073792;28;20045;-80
2023/07/31 04:16:23;;;;;;;2.78;1.10;;;17.50;99.90;;;;;;5076562;28;20139;-80
2023/07/31 04:18:49;;;;;;;6.30;1.13;;;17.50;99.90;;;;;;5078202;28;20077;-81
2023/07/31 04:21:17;;;;;;;5.22;1.30;;;17.50;99.90;;;;;;5078497;28;20363;-80
2023/07/31 04:23:44;;;;;;;4.45;1.30;;;17.50;99.90;;;;;;5044476;28;20041;-81
2023/07/31 04:26:12;;;;;;;3.33;1.10;;;17.50;99.90;;;;;;5043374;28;20479;-80
2023/07/31 04:28:38;;;;;;;3.45;1.20;;;17.60;99.90;;;;;;5078371;28;20036;-81
2023/07/31 04:31:05;;;;;;;3.20;1.10;;;17.60;99.90;;;;;;5078365;28;20044;-81
2023/07/31 04:33:32;;;;;;;4.38;1.27;;;17.60;99.90;;;;;;5078209;28;20132;-80
2023/07/31 04:38:29;;;;;;;5.95;1.20;;;17.60;99.90;;;;;;5077755;28;20524;-80
2023/07/31 04:40:56;;;;;;;4.47;1.35;;;17.60;99.90;;;;;;5060522;28;20043;-80
2023/07/31 04:43:22;;;;;;;5.07;1.30;;;17.60;99.90;;;;;;5078319;28;20032;-80
2023/07/31 04:45:50;;;;;;;4.07;1.40;;;17.60;99.90;;;;;;5060185;28;20052;-80
2023/07/31 04:48:17;;;;;;;3.97;1.13;;;17.60;99.90;;;;;;5060340;28;20426;-80
2023/07/31 04:50:44;;;;;;;5.22;1.30;;;17.70;99.90;;;;;;5060332;28;20070;-79
2023/07/31 04:53:11;;;;;;;3.78;1.40;;;17.70;99.90;;;;;;5077070;28;20051;-79
2023/07/31 04:55:38;;;;;;;3.83;1.30;;;17.70;99.90;;;;;;5060366;28;20059;-79
2023/07/31 04:58:05;;;;;;;2.90;1.20;;;17.70;99.90;;;;;;5060335;28;20162;-79
2023/07/31 05:00:32;;;;;;;2.70;1.20;;;17.70;99.90;;;;;;5059420;28;20383;-79
2023/07/31 05:02:59;;;;;;;2.67;1.15;;;17.70;99.90;;;;;;5077927;28;20036;-81
2023/07/31 05:05:26;;;;;;;3.78;1.23;;;17.70;99.90;;;;;;5042784;28;20040;-81
2023/07/31 05:07:54;;;;;;;3.25;1.10;;;17.70;99.90;;;;;;5077910;28;20037;-79
2023/07/31 05:10:21;;;;;;;3.25;1.30;;;17.80;99.90;;;;;;5078070;28;20048;-80
2023/07/31 05:12:47;;;;;;;5.20;1.20;;;17.80;99.90;;;;;;5076753;28;20496;-80
2023/07/31 05:15:14;;;;;;;3.80;1.27;;;17.80;99.90;;;;;;5060269;28;20057;-80
2023/07/31 05:17:43;;;;;;;2.88;1.13;;;17.80;99.90;;;;;;5059821;28;20040;-80
2023/07/31 05:20:10;;;;;;;3.88;1.48;;;17.80;99.90;;;;;;5078014;28;20051;-81
2023/07/31 05:22:37;;;;;;;3.67;1.30;;;17.80;99.90;;;;;;5077416;28;20032;-82
2023/07/31 05:25:04;;;;;;;7.35;1.30;;;17.80;99.90;;;;;;5060069;28;20051;-80
2023/07/31 05:27:33;;;;;;;2.97;1.20;;;17.80;99.90;;;;;;5057602;28;20048;-80
2023/07/31 05:30:00;;;;;;;5.82;1.42;;;17.80;99.90;;;;;;5077327;28;20048;-82
2023/07/31 05:32:26;;;;;;;3.05;1.15;;;17.90;99.90;;;;;;5042849;28;20075;-81
2023/07/31 05:34:53;;;;;;;3.97;1.27;;;17.90;99.90;;;;;;5077671;28;20459;-81
2023/07/31 05:37:20;;;;;;;3.97;1.20;;;17.90;99.90;;;;;;5077015;28;20367;-82
2023/07/31 05:39:47;;;;;;;3.63;1.20;;;18.00;99.90;;;;;;5043363;28;20045;-82
2023/07/31 05:42:13;;;;;;;3.97;1.35;;;18.00;99.90;;;;;;5059675;28;20048;-82
2023/07/31 05:44:40;;;;;;;3.33;1.20;;;18.00;99.90;;;;;;5077035;28;20056;-80
2023/07/31 05:47:07;;;;;;;5.07;1.50;;;18.10;99.90;;;;;;5076391;28;20051;-81
2023/07/31 05:49:34;;;;;;;3.80;1.27;;;18.10;99.90;;;;;;5077717;28;20336;-79
2023/07/31 05:52:01;;;;;;;3.53;1.30;;;18.10;99.90;;;;;;5062451;28;20031;-81
2023/07/31 05:54:27;;;;;;;4.55;1.20;;;18.20;99.90;;;;;;5079429;28;20378;-81
2023/07/31 05:56:54;;;;;;;4.45;1.00;;;18.20;99.90;;;;;;5097217;28;20047;-80
2023/07/31 05:59:21;;;;;;;3.88;1.40;;;18.20;99.90;;;;;;5087525;28;20111;-81
2023/07/31 06:01:48;;;;;;;3.80;1.23;;;18.20;99.90;;;;;;5076889;28;20521;-82
2023/07/31 06:04:14;;;;;;;4.72;1.40;;;18.30;99.90;;;;;;5059256;28;20036;-83
2023/07/31 06:09:28;;;;;;;3.80;1.23;;;18.30;99.90;;;;;;5059145;28;20098;-81
2023/07/31 06:11:55;;;;;;;4.82;1.75;;;18.40;99.90;;;;;;5058046;28;20139;-82
2023/07/31 06:14:21;;;;;;;5.60;1.30;;;18.40;99.90;;;;;;5077188;28;20090;-81
2023/07/31 06:19:34;;;;;;;3.60;1.30;;;18.40;99.90;;;;;;5075701;28;20375;-80
2023/07/31 06:22:01;;;;;;;4.93;1.40;;;18.40;99.90;;;;;;5076286;28;20451;-80
2023/07/31 06:24:27;;;;;;;7.35;1.30;;;18.40;99.90;;;;;;5076371;28;20068;-81
2023/07/31 06:26:57;;;;;;;5.90;1.30;;;18.50;99.90;;;;;;5075258;28;20044;-81
2023/07/31 06:29:24;;;;;;;4.60;1.20;;;18.50;99.90;;;;;;5058931;28;20414;-81
2023/07/31 06:31:50;;;;;;;6.50;1.77;;;18.60;99.90;;;;;;5075448;28;20072;-79
2023/07/31 06:34:17;;;;;;;4.30;1.30;;;18.70;99.90;;;;;;5075987;28;20123;-80
2023/07/31 06:36:45;;;;;;;4.88;1.35;;;18.70;99.90;;;;;;5076179;28;20068;-82
2023/07/31 06:39:12;;;;;;;5.00;1.40;;;18.80;99.90;;;;;;5074703;28;20119;-82
2023/07/31 06:41:38;;;;;;;3.35;1.15;;;18.90;99.90;;;;;;5075804;28;20090;-82
2023/07/31 06:44:09;;;;;;;3.40;1.30;;;18.90;99.90;;;;;;5058201;28;20123;-81
2023/07/31 06:46:38;;;;;;;4.32;1.15;;;19.00;99.90;;;;;;5056781;28;20060;-81
2023/07/31 06:49:05;;;;;;;6.32;1.30;;;19.00;99.90;;;;;;5075782;28;20127;-81
2023/07/31 06:51:32;;;;;;;4.72;1.50;;;19.00;99.90;;;;;;5058724;28;20119;-81
2023/07/31 06:53:59;;;;;;;3.63;1.33;;;18.90;99.90;;;;;;5074805;28;20356;-80
2023/07/31 06:59:11;;;;;;;7.07;1.30;;;18.90;99.90;;;;;;5074937;28;20067;-81
2023/07/31 07:01:38;;;;;;;4.47;1.42;;;19.00;99.90;;;;;;5075709;28;20341;-81
2023/07/31 07:04:05;;;;;;;3.92;1.40;;;18.90;99.90;;;;;;5058047;28;20052;-82
2023/07/31 07:06:34;;;;;;;5.15;1.30;;;19.00;99.90;;;;;;5040297;28;20117;-83
2023/07/31 07:09:00;;;;;;;5.30;1.40;;;19.00;99.90;;;;;;5075674;28;20124;-80
2023/07/31 07:11:27;;;;;;;5.43;1.33;;;19.10;99.90;;;;;;5058273;28;20105;-81
2023/07/31 07:13:54;;;;;;;3.08;1.10;;;19.10;99.90;;;;;;5056938;28;20044;-82
2023/07/31 07:16:21;;;;;;;5.38;1.17;;;19.10;99.90;;;;;;5075074;28;20067;-81
2023/07/31 07:18:47;;;;;;;6.32;1.40;;;19.10;99.90;;;;;;5074907;28;20386;-82
2023/07/31 07:21:29;;;;;;;;;;;19.20;99.90;;;;;;5058669;28;20045;-81
2023/07/31 07:23:56;;;;;;;4.57;1.40;;;19.30;99.90;;;;;;5053939;28;19921;-82
2023/07/31 07:26:23;;;;;;;5.22;1.20;;;19.30;99.90;;;;;;5036234;28;20037;-82
2023/07/31 07:28:49;;;;;;;7.00;1.50;;;19.30;99.90;;;;;;5076894;28;20086;-84
2023/07/31 07:31:16;;;;;;;5.55;1.40;;;19.40;99.90;;;;;;5070474;28;20113;-85
2023/07/31 07:33:43;;;;;;;3.92;1.27;;;19.40;99.90;;;;;;5073476;28;20064;-82
2023/07/31 07:39:13;;;;;;;5.10;1.52;;;19.40;99.90;;;;;;5073907;28;20074;-80
2023/07/31 07:41:40;;;;;;;5.78;1.25;;;19.40;99.90;;;;;;5057860;28;20072;-86
2023/07/31 07:44:07;;;;;;;3.92;1.10;;;19.50;99.90;;;;;;5057564;28;20056;-81
2023/07/31 07:46:34;;;;;;;9.20;1.60;;;19.60;99.90;;;;;;5055901;28;20072;-81
2023/07/31 07:49:00;;;;;;;3.25;1.20;;;19.70;99.90;;;;;;5074624;28;20447;-81
2023/07/31 07:51:27;;;;;;;6.30;1.58;;;19.70;99.90;;;;;;5073404;28;20060;-80
2023/07/31 07:53:54;;;;;;;6.03;1.45;;;19.90;99.90;;;;;;5073878;28;20425;-82
2023/07/31 07:56:22;;;;;;;4.28;1.58;;;20.00;99.90;;;;;;5057195;28;20113;-81
2023/07/31 07:58:52;;;;;;;7.15;1.52;;;19.90;99.90;;;;;;5077328;28;20094;-82
2023/07/31 08:01:19;;;;;;;6.75;1.52;;;20.00;99.90;;;;;;5095108;28;20032;-86
2023/07/31 08:03:46;;;;;;;6.70;1.83;;;20.00;99.90;;;;;;5077580;28;20075;-83
2023/07/31 08:06:13;;;;;;;7.22;1.77;;;20.00;99.90;;;;;;5076026;28;20378;-83
2023/07/31 08:08:39;;;;;;;5.05;1.80;;;20.00;99.90;;;;;;5094870;28;20071;-81
2023/07/31 08:11:06;;;;;;;6.10;1.85;;;20.00;99.90;;;;;;5095524;28;20072;-79
2023/07/31 08:13:33;;;;;;;5.50;1.80;;;20.00;99.90;;;;;;5093858;28;20123;-81
2023/07/31 08:16:01;;;;;;;7.60;2.00;;;20.00;99.90;;;;;;5094609;28;20065;-79
2023/07/31 08:18:27;;;;;;;5.97;2.00;;;20.00;99.90;;;;;;5088524;28;20355;-81
2023/07/31 08:20:54;;;;;;;8.65;2.00;;;19.90;99.90;;;;;;5054608;28;20105;-79
2023/07/31 08:23:21;;;;;;;5.75;2.03;;;20.00;99.90;;;;;;5074368;28;20516;-83
2023/07/31 08:25:49;;;;;;;6.18;2.00;;;20.00;99.90;;;;;;5055368;28;20137;-82
2023/07/31 08:28:16;;;;;;;6.40;1.95;;;20.10;99.90;;;;;;5074262;28;20079;-84
2023/07/31 08:30:43;;;;;;;6.60;2.17;;;20.20;99.90;;;;;;5055697;28;20056;-82
2023/07/31 08:33:09;;;;;;;5.30;2.00;;;20.40;99.90;;;;;;5055119;28;20143;-83
2023/07/31 08:35:36;;;;;;;5.55;2.00;;;20.60;99.90;;;;;;5049472;28;20450;-84
2023/07/31 08:38:03;;;;;;;6.68;2.30;;;20.90;99.90;;;;;;5054015;28;20048;-82
2023/07/31 08:40:30;;;;;;;8.77;2.13;;;21.10;99.90;;;;;;5060516;28;20040;-84
2023/07/31 08:43:01;;;;;;;7.00;1.80;;;21.20;99.90;;;;;;5056261;28;20116;-82
2023/07/31 08:45:28;;;;;;;4.43;1.67;;;21.00;99.90;;;;;;5038806;28;20064;-86
2023/07/31 08:47:55;;;;;;;5.63;1.95;;;20.80;99.90;;;;;;5073733;28;20467;-82
2023/07/31 08:50:22;;;;;;;5.70;2.13;;;20.80;99.90;;;;;;5056577;28;20059;-83
2023/07/31 08:52:48;;;;;;;7.65;1.90;;;20.80;99.90;;;;;;5072365;28;20109;-85
2023/07/31 08:55:16;;;;;;;5.97;2.08;;;20.80;99.90;;;;;;5053179;28;20048;-84
2023/07/31 08:57:44;;;;;;;6.30;1.90;;;20.80;99.90;;;;;;5038138;28;20041;-83
2023/07/31 09:00:11;;;;;;;6.50;2.08;;;20.80;99.90;;;;;;5019149;28;20132;-82
2023/07/31 09:02:38;;;;;;;4.60;1.90;;;20.80;99.90;;;;;;5047700;28;20045;-83
2023/07/31 09:05:05;;;;;;;5.78;1.98;;;20.80;99.90;;;;;;5060433;28;20053;-86
2023/07/31 09:07:32;;;;;;;5.72;1.92;;;20.70;99.90;;;;;;5077418;28;20064;-87
2023/07/31 09:09:59;;;;;;;3.85;1.50;;;20.70;99.90;;;;;;5060876;28;20041;-88
2023/07/31 09:12:26;;;;;;;4.20;1.63;;;20.60;99.90;;;;;;5077199;28;20044;-84
2023/07/31 09:14:52;;;;;;;6.85;1.92;;;20.50;99.90;;;;;;5078019;28;20106;-84
2023/07/31 09:17:21;;;;;;;4.13;1.70;;;20.40;99.90;;;;;;5077419;28;20499;-83
2023/07/31 09:19:48;;;;;;;4.70;1.40;;;20.50;99.90;;;;;;5059082;28;20048;-83
2023/07/31 09:22:15;;;;;;;7.28;1.48;;;20.60;99.90;;;;;;5059913;28;20052;-84
2023/07/31 09:24:42;;;;;;;3.58;1.42;;;20.60;99.90;;;;;;5043324;28;20044;-85
2023/07/31 09:29:54;;;;;;;3.65;1.40;;;20.70;99.90;;;;;;5060070;28;20399;-87
2023/07/31 09:32:21;;;;;;;4.20;1.38;;;20.70;99.90;;;;;;5060193;28;20064;-83
2023/07/31 09:34:48;;;;;;;4.13;1.30;;;20.50;99.90;;;;;;5059764;28;20114;-84
2023/07/31 09:37:16;;;;;;;5.53;1.42;;;20.40;99.90;;;;;;5059368;28;20368;-86
2023/07/31 09:39:43;;;;;;;3.63;1.33;;;20.50;99.90;;;;;;5084375;28;20486;-85
2023/07/31 09:42:09;;;;;;;5.25;1.50;;;20.50;99.90;;;;;;5075384;28;20515;-82
2023/07/31 09:44:36;;;;;;;3.63;1.33;;;20.60;99.90;;;;;;5054686;28;20424;-85
2023/07/31 09:50:07;;;;;;;4.38;1.55;;;20.60;99.90;;;;;;5060293;28;20394;-85
2023/07/31 09:52:34;;;;;;;4.45;1.40;;;20.50;99.90;;;;;;5052083;28;20078;-88
2023/07/31 09:55:01;;;;;;;2.90;1.10;;;20.40;99.90;;;;;;5059622;28;20106;-86
2023/07/31 09:57:27;;;;;;;3.38;1.05;;;20.40;99.90;;;;;;5071832;28;20044;-87
2023/07/31 09:59:54;;;;;;;2.70;1.10;;;20.50;99.90;;;;;;5059120;28;20044;-84
2023/07/31 10:02:21;;;;;;;3.13;1.10;;;20.50;99.90;;;;;;5059466;28;20041;-85
2023/07/31 10:04:48;;;;;;;3.63;1.30;;;20.60;99.90;;;;;;5076547;28;20044;-85
2023/07/31 10:07:15;;;;;;;4.00;1.25;;;20.70;99.90;;;;;;5058065;28;20052;-83
2023/07/31 10:09:42;;;;;;;3.47;1.30;;;20.70;99.90;;;;;;5043909;28;20037;-88
2023/07/31 10:12:09;;;;;;;4.05;1.20;;;20.70;99.90;;;;;;5050495;28;20052;-87
2023/07/31 10:14:36;;;;;;;3.75;1.40;;;20.60;99.90;;;;;;5058979;28;20048;-87
2023/07/31 10:17:05;;;;;;;3.60;1.30;;;20.90;99.90;;;;;;5059044;28;20102;-86
2023/07/31 10:19:31;;;;;;;5.68;1.33;;;21.10;99.90;;;;;;5056494;28;20040;-90
2023/07/31 10:21:58;;;;;;;3.55;1.30;;;21.20;99.90;;;;;;5032726;28;20064;-89
2023/07/31 10:24:25;;;;;;;3.75;1.30;;;21.30;99.90;;;;;;5038472;28;20479;-87
2023/07/31 10:29:38;;;;;;;4.85;1.40;;;21.20;99.90;;;;;;5038295;28;20502;-86
2023/07/31 10:32:06;;;;;;;3.22;1.20;;;21.10;99.90;;;;;;5025482;28;20049;-84
2023/07/31 10:34:33;;;;;;;4.25;1.40;;;21.00;99.90;;;;;;5057355;28;20105;-84
2023/07/31 10:37:00;;;;;;;5.10;1.38;;;21.10;99.90;;;;;;5039556;28;20053;-85
2023/07/31 10:39:26;;;;;;;4.18;1.65;;;21.10;99.90;;;;;;5056152;28;20045;-83
2023/07/31 10:41:53;;;;;;;5.65;1.60;;;21.30;99.90;;;;;;5075742;28;20157;-83
2023/07/31 10:44:20;;;;;;;3.58;1.23;;;21.50;99.90;;;;;;5057912;28;20048;-85
2023/07/31 10:46:49;;;;;;;5.47;1.50;;;21.70;99.90;;;;;;5057415;28;20101;-88
2023/07/31 10:49:15;;;;;;;5.72;1.60;;;21.80;99.90;;;;;;5051158;28;20045;-87
2023/07/31 10:51:42;;;;;;;4.00;1.45;;;21.90;99.90;;;;;;5037959;28;20087;-88
2023/07/31 10:54:09;;;;;;;4.63;1.63;;;21.80;99.90;;;;;;5037138;28;20422;-87
2023/07/31 10:56:38;;;;;;;4.43;1.50;;;21.60;99.90;;;;;;5037489;28;20053;-87
2023/07/31 10:59:06;;;;;;;7.10;1.80;;;21.60;99.90;;;;;;5040906;28;20052;-89
2023/07/31 11:01:33;;;;;;;6.05;1.92;;;21.60;99.90;;;;;;5041235;28;20062;-89
2023/07/31 11:04:01;;;;;;;6.75;1.67;;;21.80;99.90;;;;;;5075578;28;20044;-83
2023/07/31 11:06:29;;;;;;;6.10;1.63;;;21.80;99.90;;;;;;5056652;28;20148;-83
2023/07/31 11:08:56;;;;;;;4.65;1.40;;;21.80;99.90;;;;;;5058080;28;20045;-84
2023/07/31 11:11:22;;;;;;;3.75;1.30;;;21.90;99.90;;;;;;5057490;28;20459;-85
2023/07/31 11:13:49;;;;;;;3.83;1.50;;;21.80;99.90;;;;;;5056741;28;20528;-84
2023/07/31 11:16:18;;;;;;;4.85;1.45;;;21.80;99.90;;;;;;5057567;28;20127;-84
2023/07/31 11:18:45;;;;;;;6.35;1.70;;;21.90;99.90;;;;;;5074175;28;20234;-84
2023/07/31 11:21:12;;;;;;;5.28;1.42;;;21.90;99.90;;;;;;5057702;28;20424;-85
2023/07/31 11:23:39;;;;;;;4.60;1.60;;;21.90;99.90;;;;;;5075036;28;20429;-83
2023/07/31 11:29:10;;;;;;;3.40;1.23;;;21.70;99.90;;;;;;5057478;28;20466;-85
2023/07/31 11:31:39;;;;;;;5.05;1.30;;;21.50;99.90;;;;;;5053174;28;20080;-84
2023/07/31 11:34:06;;;;;;;4.13;1.25;;;21.40;99.90;;;;;;5053389;28;20036;-83
2023/07/31 11:36:33;;;;;;;5.90;1.50;;;21.70;99.90;;;;;;5036152;28;20475;-85
2023/07/31 11:39:00;;;;;;;5.93;1.40;;;22.00;99.90;;;;;;5053351;28;20056;-84
2023/07/31 11:41:26;;;;;;;4.70;1.73;;;22.30;99.90;;;;;;5020386;28;20352;-85
2023/07/31 11:43:53;;;;;;;4.07;1.45;;;22.40;99.90;;;;;;5054298;28;20055;-84
2023/07/31 11:46:21;;;;;;;4.22;1.40;;;22.30;99.90;;;;;;5051400;28;20137;-84
2023/07/31 11:48:48;;;;;;;6.65;1.60;;;22.10;99.90;;;;;;5037019;28;20048;-84
2023/07/31 11:51:14;;;;;;;6.93;1.90;;;22.00;99.90;;;;;;5070657;28;20052;-83
2023/07/31 11:53:41;;;;;;;3.90;1.50;;;21.80;99.90;;;;;;5073809;28;20383;-84
2023/07/31 11:56:11;;;;;;;5.82;1.80;;;21.90;99.90;;;;;;5074485;28;20048;-84
2023/07/31 11:58:38;;;;;;;5.38;1.70;;;21.90;99.90;;;;;;5039570;28;20063;-85
2023/07/31 12:01:04;;;;;;;7.95;2.10;;;21.90;99.90;;;;;;5056834;28;20056;-84
2023/07/31 12:03:31;;;;;;;5.65;1.58;;;21.90;99.90;;;;;;5074496;28;20456;-84
2023/07/31 12:05:59;;;;;;;6.03;1.85;;;22.10;99.90;;;;;;5055777;28;20479;-83
2023/07/31 12:08:26;;;;;;;7.47;1.85;;;22.30;99.90;;;;;;5056837;28;20037;-83
2023/07/31 12:10:53;;;;;;;5.82;1.88;;;22.50;99.90;;;;;;5074473;28;20113;-85
2023/07/31 12:13:19;;;;;;;6.50;2.10;;;22.40;99.90;;;;;;5056158;28;20051;-85
2023/07/31 12:15:46;;;;;;;9.38;1.85;;;22.10;99.90;;;;;;5074076;28;20050;-83
2023/07/31 12:18:13;;;;;;;6.22;1.90;;;21.70;99.90;;;;;;5057045;28;20041;-84
2023/07/31 12:20:40;;;;;;;6.35;2.25;;;21.50;99.90;;;;;;5055860;28;20048;-83
2023/07/31 12:23:07;;;;;;;6.47;1.80;;;21.40;99.90;;;;;;5074277;28;20098;-83
2023/07/31 12:25:33;;;;;;;8.27;1.90;;;21.20;99.90;;;;;;5055577;28;20433;-84
2023/07/31 12:28:00;;;;;;;6.53;2.28;;;21.10;99.90;;;;;;5074262;28;20481;-83
2023/07/31 12:30:27;;;;;;;6.28;1.70;;;21.10;99.90;;;;;;5074278;28;20048;-83
2023/07/31 12:32:54;;;;;;;5.90;1.92;;;21.10;99.90;;;;;;5039263;28;20082;-83
2023/07/31 12:35:21;;;;;;;7.07;2.03;;;20.90;99.90;;;;;;5073983;28;20119;-84
2023/07/31 12:37:50;;;;;;;6.70;1.90;;;20.90;99.90;;;;;;5077124;28;20105;-84
2023/07/31 12:40:16;;;;;;;7.00;1.92;;;20.70;99.90;;;;;;5060043;28;20049;-82
2023/07/31 12:42:52;;;;;;;4.82;1.65;;;20.70;99.90;;;;;;5045158;28;20048;-84
2023/07/31 12:45:20;;;;;;;6.35;1.90;;;20.70;99.90;;;;;;5059251;28;20056;-83
2023/07/31 12:47:50;;;;;;;5.28;2.15;;;20.60;99.90;;;;;;5078050;28;20041;-83
2023/07/31 12:50:17;;;;;;;6.80;1.95;;;20.70;99.90;;;;;;5043815;28;20079;-83
2023/07/31 12:52:43;;;;;;;7.85;2.13;;;20.60;99.90;;;;;;5059462;28;20053;-84
2023/07/31 12:55:10;;;;;;;5.93;1.63;;;20.60;99.90;;;;;;5060354;28;20036;-82
2023/07/31 13:00:25;;;;;;;6.30;1.80;;;20.60;99.90;;;;;;5059458;28;20048;-83
2023/07/31 13:02:52;;;;;;;5.22;1.80;;;20.70;99.90;;;;;;5059902;28;20471;-82
2023/07/31 13:05:22;;;;;;;6.55;1.63;;;20.60;99.90;;;;;;5059118;28;20059;-82
2023/07/31 13:07:49;;;;;;;6.55;1.90;;;20.50;99.90;;;;;;5060277;28;20494;-82
2023/07/31 13:10:18;;;;;;;6.53;1.88;;;20.30;99.90;;;;;;5077627;28;20041;-81
2023/07/31 13:12:45;;;;;;;6.20;1.92;;;20.10;99.90;;;;;;5081602;28;20040;-81
2023/07/31 13:15:12;;;;;;;7.70;1.83;;;19.90;99.90;;;;;;5065410;28;20044;-81
2023/07/31 13:17:39;;;;;;;6.32;1.95;;;19.60;99.90;;;;;;5077372;28;20044;-83
2023/07/31 13:20:06;;;;;;;7.45;2.00;;;19.20;99.90;;;;;;5058971;28;20127;-81
2023/07/31 13:22:32;;;;;;;6.63;2.00;;;19.00;99.90;;;;;;5077158;28;20421;-82
2023/07/31 13:24:59;;;;;;;7.03;2.03;;;18.70;99.90;;;;;;5059367;28;20110;-83